createdAt,value
2018-05-21T00:00:30.511Z,8.67
2018-05-21T00:02:58.047Z,9.87
2018-05-21T00:05:25.550Z,9.63
2018-05-21T00:07:53.026Z,9.37
2018-05-21T00:10:20.527Z,10.10
2018-05-21T00:12:48.003Z,9.90
2018-05-21T00:15:15.502Z,9.87
2018-05-21T00:17:42.974Z,9.57
2018-05-21T00:20:10.478Z,9.67
2018-05-21T00:22:37.950Z,9.67
2018-05-21T00:25:05.446Z,9.90
2018-05-21T00:27:32.925Z,9.40
2018-05-21T00:30:00.414Z,9.50
2018-05-21T00:32:27.886Z,9.53
2018-05-21T00:34:55.378Z,9.47
2018-05-21T00:37:22.866Z,9.30
2018-05-21T00:39:50.358Z,9.07
2018-05-21T00:42:18.409Z,9.27
2018-05-21T00:44:45.889Z,9.07
2018-05-21T00:47:13.370Z,10.07
2018-05-21T00:49:40.905Z,9.77
2018-05-21T00:52:08.373Z,10.03
2018-05-21T00:54:35.866Z,9.60
2018-05-21T00:57:03.353Z,10.37
2018-05-21T00:59:30.861Z,10.10
2018-05-21T01:01:58.354Z,9.73
2018-05-21T01:04:25.838Z,10.33
2018-05-21T01:06:53.335Z,10.03
2018-05-21T01:09:20.835Z,10.27
2018-05-21T01:11:48.337Z,10.30
2018-05-21T01:14:15.834Z,10.80
2018-05-21T01:16:43.321Z,11.20
2018-05-21T01:19:10.797Z,10.63
2018-05-21T01:21:38.299Z,10.20
2018-05-21T01:24:05.782Z,10.60
2018-05-21T01:26:33.274Z,10.47
2018-05-21T01:29:00.763Z,10.83
2018-05-21T01:31:28.267Z,10.77
2018-05-21T01:33:55.757Z,11.13
2018-05-21T01:36:23.251Z,10.00
2018-05-21T01:38:50.731Z,9.93
2018-05-21T01:41:18.220Z,11.03
2018-05-21T01:43:45.726Z,10.40
2018-05-21T01:46:13.218Z,10.90
2018-05-21T01:48:40.694Z,11.43
2018-05-21T01:51:08.198Z,9.80
2018-05-21T01:53:35.691Z,10.13
2018-05-21T01:56:03.182Z,10.33
2018-05-21T01:58:30.681Z,10.00
2018-05-21T02:00:58.174Z,9.73
2018-05-21T02:03:25.647Z,10.13
2018-05-21T02:05:53.153Z,11.07
2018-05-21T02:08:20.896Z,11.17
2018-05-21T02:10:48.371Z,11.50
2018-05-21T02:13:15.850Z,10.90
2018-05-21T02:15:43.407Z,10.90
2018-05-21T02:18:10.882Z,11.40
2018-05-21T02:20:38.373Z,10.80
2018-05-21T02:23:05.861Z,10.53
2018-05-21T02:25:34.362Z,11.00
2018-05-21T02:28:01.864Z,11.67
2018-05-21T02:30:29.342Z,11.27
2018-05-21T02:32:56.833Z,10.33
2018-05-21T02:35:24.324Z,11.40
2018-05-21T02:37:51.823Z,11.07
2018-05-21T02:40:19.305Z,10.93
2018-05-21T02:42:47.612Z,11.07
2018-05-21T02:45:15.093Z,9.90
2018-05-21T02:47:42.591Z,11.40
2018-05-21T02:50:10.081Z,10.27
2018-05-21T02:52:37.586Z,11.40
2018-05-21T02:55:05.071Z,11.40
2018-05-21T02:57:32.570Z,11.33
2018-05-21T03:00:00.045Z,10.83
2018-05-21T03:02:27.560Z,11.17
2018-05-21T03:04:55.038Z,10.37
2018-05-21T03:07:22.546Z,10.93
2018-05-21T03:09:50.052Z,10.50
2018-05-21T03:12:17.551Z,10.87
2018-05-21T03:14:45.030Z,10.97
2018-05-21T03:17:12.534Z,10.80
2018-05-21T03:19:40.015Z,10.27
2018-05-21T03:22:07.515Z,10.87
2018-05-21T03:24:34.996Z,10.27
2018-05-21T03:27:02.490Z,9.93
2018-05-21T03:29:29.957Z,10.87
2018-05-21T03:31:57.484Z,10.40
2018-05-21T03:34:24.966Z,10.33
2018-05-21T03:36:52.462Z,10.07
2018-05-21T03:39:19.978Z,9.90
2018-05-21T03:41:47.492Z,9.83
2018-05-21T03:44:14.968Z,10.07
2018-05-21T03:46:42.472Z,10.30
2018-05-21T03:49:09.950Z,10.30
2018-05-21T03:51:37.449Z,9.27
2018-05-21T03:54:04.938Z,8.93
2018-05-21T03:56:32.414Z,9.33
2018-05-21T03:59:11.738Z,9.63
2018-05-21T04:01:50.934Z,9.23
2018-05-21T04:04:18.410Z,9.37
2018-05-21T04:06:45.889Z,9.27
2018-05-21T04:09:13.387Z,10.17
2018-05-21T04:11:40.858Z,9.67
2018-05-21T04:14:08.345Z,9.60
2018-05-21T04:16:35.810Z,9.40
2018-05-21T04:19:03.330Z,9.43
2018-05-21T04:21:31.031Z,10.00
2018-05-21T04:23:58.527Z,9.50
2018-05-21T04:26:26.003Z,9.87
2018-05-21T04:28:53.493Z,9.00
2018-05-21T04:31:20.958Z,9.30
2018-05-21T04:33:48.461Z,9.00
2018-05-21T04:36:15.939Z,9.43
2018-05-21T04:38:43.433Z,8.63
2018-05-21T04:41:10.912Z,9.17
2018-05-21T04:43:38.406Z,8.30
2018-05-21T04:46:05.910Z,9.53
2018-05-21T04:48:33.407Z,9.20
2018-05-21T04:51:00.886Z,8.83
2018-05-21T04:53:28.387Z,9.33
2018-05-21T04:55:55.866Z,9.10
2018-05-21T04:58:23.370Z,8.53
2018-05-21T05:00:50.835Z,8.60
2018-05-21T05:03:18.321Z,8.40
2018-05-21T05:05:45.787Z,8.63
2018-05-21T05:08:13.273Z,8.03
2018-05-21T05:10:40.750Z,8.27
2018-05-21T05:13:08.251Z,7.77
2018-05-21T05:15:35.732Z,7.47
2018-05-21T05:18:03.262Z,7.07
2018-05-21T05:20:30.754Z,6.70
2018-05-21T05:22:58.218Z,7.23
2018-05-21T05:25:25.716Z,6.37
2018-05-21T05:27:53.206Z,7.10
2018-05-21T05:30:20.711Z,6.03
2018-05-21T05:32:48.182Z,7.27
2018-05-21T05:35:15.674Z,6.80
2018-05-21T05:37:43.142Z,6.53
2018-05-21T05:40:10.636Z,6.00
2018-05-21T05:42:38.118Z,6.10
2018-05-21T05:45:05.601Z,5.50
2018-05-21T05:47:33.070Z,4.50
2018-05-21T05:50:00.559Z,4.73
2018-05-21T05:52:28.026Z,4.80
2018-05-21T05:54:55.518Z,5.33
2018-05-21T05:57:23.013Z,4.60
2018-05-21T05:59:50.511Z,4.27
2018-05-21T06:02:17.975Z,3.93
2018-05-21T06:04:45.462Z,3.80
2018-05-21T06:07:12.922Z,3.93
2018-05-21T06:09:40.414Z,3.50
2018-05-21T06:12:07.890Z,3.27
2018-05-21T06:14:36.165Z,3.63
2018-05-21T06:17:03.673Z,3.30
2018-05-21T06:19:31.161Z,3.47
2018-05-21T06:21:58.671Z,3.37
2018-05-21T06:24:26.167Z,3.07
2018-05-21T06:26:53.635Z,3.60
2018-05-21T06:29:27.828Z,3.30
2018-05-21T06:31:55.294Z,2.97
2018-05-21T06:34:22.832Z,3.23
2018-05-21T06:36:50.266Z,3.13
2018-05-21T06:39:17.765Z,3.37
2018-05-21T06:41:45.254Z,3.43
2018-05-21T06:44:12.765Z,3.53
2018-05-21T06:46:40.230Z,3.10
2018-05-21T06:49:07.702Z,4.17
2018-05-21T06:51:35.190Z,3.40
2018-05-21T06:54:02.654Z,3.63
2018-05-21T06:56:30.146Z,3.77
2018-05-21T06:58:57.630Z,3.43
2018-05-21T07:01:25.212Z,3.60
2018-05-21T07:03:52.680Z,3.60
2018-05-21T07:06:21.125Z,3.63
2018-05-21T07:08:48.599Z,3.77
2018-05-21T07:11:16.090Z,3.70
2018-05-21T07:13:43.573Z,3.73
2018-05-21T07:16:11.082Z,3.70
2018-05-21T07:18:38.786Z,3.63
2018-05-21T07:21:10.458Z,3.93
2018-05-21T07:23:37.921Z,4.13
2018-05-21T07:26:05.412Z,4.00
2018-05-21T07:28:32.878Z,3.77
2018-05-21T07:31:00.372Z,4.00
2018-05-21T07:33:28.625Z,3.70
2018-05-21T07:35:56.113Z,3.83
2018-05-21T07:38:23.676Z,3.90
2018-05-21T07:40:51.262Z,3.60
2018-05-21T07:43:18.784Z,3.67
2018-05-21T07:45:46.276Z,3.90
2018-05-21T07:48:13.757Z,3.90
2018-05-21T07:50:41.255Z,3.97
2018-05-21T07:53:08.730Z,4.57
2018-05-21T07:55:37.186Z,4.03
2018-05-21T07:58:04.758Z,3.73
2018-05-21T08:00:32.335Z,3.80
2018-05-21T08:02:59.831Z,4.20
2018-05-21T08:05:27.362Z,4.03
2018-05-21T08:07:54.838Z,3.70
2018-05-21T08:10:22.412Z,4.03
2018-05-21T08:12:49.817Z,3.90
2018-05-21T08:15:17.313Z,4.40
2018-05-21T08:17:44.782Z,3.90
2018-05-21T08:20:12.802Z,4.30
2018-05-21T08:22:40.378Z,3.87
2018-05-21T08:25:07.910Z,3.90
2018-05-21T08:27:35.482Z,4.00
2018-05-21T08:30:02.957Z,4.20
2018-05-21T08:32:30.439Z,4.33
2018-05-21T08:34:57.909Z,4.23
2018-05-21T08:37:25.414Z,4.73
2018-05-21T08:39:52.887Z,4.60
2018-05-21T08:42:20.363Z,4.50
2018-05-21T08:44:47.837Z,4.67
2018-05-21T08:47:15.328Z,4.00
2018-05-21T08:49:42.797Z,4.07
2018-05-21T08:52:10.278Z,4.20
2018-05-21T08:54:37.764Z,4.03
2018-05-21T08:57:05.290Z,4.10
2018-05-21T08:59:32.778Z,4.20
2018-05-21T09:02:00.283Z,4.53
2018-05-21T09:04:27.745Z,4.47
2018-05-21T09:06:55.238Z,4.33
2018-05-21T09:09:22.721Z,3.97
2018-05-21T09:11:50.207Z,4.30
2018-05-21T09:14:17.680Z,4.60
2018-05-21T09:16:45.161Z,4.40
2018-05-21T09:19:12.629Z,4.20
2018-05-21T09:21:40.121Z,4.27
2018-05-21T09:24:07.594Z,4.00
2018-05-21T09:26:35.088Z,4.27
2018-05-21T09:29:02.564Z,4.20
2018-05-21T09:31:30.051Z,4.60
2018-05-21T09:33:57.514Z,4.37
2018-05-21T09:36:25.015Z,4.37
2018-05-21T09:38:52.494Z,4.23
2018-05-21T09:41:19.965Z,4.23
2018-05-21T09:43:47.453Z,4.00
2018-05-21T09:46:14.921Z,4.23
2018-05-21T09:48:42.505Z,4.70
2018-05-21T09:51:09.905Z,4.03
2018-05-21T09:53:37.393Z,4.50
2018-05-21T09:56:04.867Z,4.40
2018-05-21T09:58:32.417Z,4.53
2018-05-21T10:00:59.893Z,4.30
2018-05-21T10:03:37.381Z,4.60
2018-05-21T10:06:04.868Z,4.87
2018-05-21T10:08:32.369Z,4.33
2018-05-21T10:10:59.837Z,4.30
2018-05-21T10:13:27.338Z,4.13
2018-05-21T10:15:54.809Z,4.23
2018-05-21T10:18:22.334Z,4.10
2018-05-21T10:20:49.802Z,4.30
2018-05-21T10:23:17.299Z,4.30
2018-05-21T10:25:44.766Z,4.10
2018-05-21T10:28:12.272Z,4.90
2018-05-21T10:30:39.888Z,4.77
2018-05-21T10:33:08.214Z,4.13
2018-05-21T10:35:36.149Z,4.20
2018-05-21T10:38:03.746Z,4.10
2018-05-21T10:40:31.234Z,3.97
2018-05-21T10:42:58.766Z,4.10
2018-05-21T10:45:26.378Z,3.80
2018-05-21T10:47:53.890Z,4.20
2018-05-21T10:50:21.414Z,4.07
2018-05-21T10:52:48.917Z,4.10
2018-05-21T10:55:16.397Z,4.40
2018-05-21T10:57:44.004Z,3.87
2018-05-21T11:00:11.495Z,4.20
2018-05-21T11:02:39.022Z,3.80
2018-05-21T11:05:06.495Z,3.90
2018-05-21T11:07:33.977Z,3.90
2018-05-21T11:10:01.450Z,3.77
2018-05-21T11:12:28.914Z,3.80
2018-05-21T11:14:56.399Z,4.30
2018-05-21T11:17:23.854Z,4.03
2018-05-21T11:19:51.339Z,4.10
2018-05-21T11:22:18.800Z,3.77
2018-05-21T11:24:46.298Z,4.10
2018-05-21T11:27:13.776Z,4.20
2018-05-21T11:29:41.269Z,3.87
2018-05-21T11:32:08.729Z,3.63
2018-05-21T11:34:36.218Z,3.70
2018-05-21T11:37:03.698Z,3.50
2018-05-21T11:39:31.206Z,3.70
2018-05-21T11:41:58.686Z,3.70
2018-05-21T11:44:26.163Z,3.67
2018-05-21T11:46:53.626Z,3.37
2018-05-21T11:49:21.113Z,3.90
2018-05-21T11:51:48.819Z,3.60
2018-05-21T11:54:16.343Z,3.30
2018-05-21T11:56:43.802Z,3.70
2018-05-21T11:59:11.282Z,3.47
2018-05-21T12:01:38.746Z,3.97
2018-05-21T12:04:06.250Z,4.23
2018-05-21T12:06:33.704Z,4.00
2018-05-21T12:09:01.205Z,3.67
2018-05-21T12:11:28.673Z,4.20
2018-05-21T12:13:56.158Z,3.87
2018-05-21T12:16:23.621Z,3.80
2018-05-21T12:18:51.108Z,4.07
2018-05-21T12:21:18.562Z,4.03
2018-05-21T12:23:46.046Z,3.87
2018-05-21T12:26:14.031Z,4.00
2018-05-21T12:28:41.504Z,3.63
2018-05-21T12:31:08.986Z,4.03
2018-05-21T12:33:36.463Z,3.83
2018-05-21T12:36:04.000Z,3.83
2018-05-21T12:38:31.486Z,3.80
2018-05-21T12:40:58.962Z,3.93
2018-05-21T12:43:26.426Z,3.70
2018-05-21T12:45:53.919Z,3.97
2018-05-21T12:48:21.387Z,3.83
2018-05-21T12:50:48.878Z,3.90
2018-05-21T12:53:16.350Z,3.90
2018-05-21T12:55:43.859Z,3.72
2018-05-21T12:58:11.335Z,3.97
2018-05-21T13:00:38.814Z,4.20
2018-05-21T13:03:06.290Z,4.10
2018-05-21T13:05:34.218Z,3.85
2018-05-21T13:08:01.742Z,3.80
2018-05-21T13:10:29.310Z,3.80
2018-05-21T13:12:56.950Z,3.37
2018-05-21T13:15:24.559Z,3.90
2018-05-21T13:17:52.019Z,3.60
2018-05-21T13:20:19.571Z,3.85
2018-05-21T13:22:47.058Z,3.70
2018-05-21T13:25:14.562Z,3.62
2018-05-21T13:27:42.046Z,3.95
2018-05-21T13:30:09.523Z,3.70
2018-05-21T13:32:36.999Z,4.60
2018-05-21T13:35:04.460Z,3.70
2018-05-21T13:37:32.490Z,3.70
2018-05-21T13:40:00.851Z,4.20
2018-05-21T13:42:28.374Z,3.62
2018-05-21T13:44:55.906Z,3.83
2018-05-21T13:47:23.474Z,3.87
2018-05-21T13:49:50.970Z,3.55
2018-05-21T13:52:18.593Z,3.55
2018-05-21T13:54:46.062Z,3.83
2018-05-21T13:57:13.615Z,3.65
2018-05-21T13:59:41.144Z,3.70
2018-05-21T14:02:08.697Z,3.80
2018-05-21T14:04:36.327Z,3.97
2018-05-21T14:07:03.794Z,3.90
2018-05-21T14:09:31.361Z,3.47
2018-05-21T14:11:58.986Z,3.85
2018-05-21T14:14:26.554Z,3.80
2018-05-21T14:16:54.122Z,4.12
2018-05-21T14:19:21.659Z,3.92
2018-05-21T14:21:49.230Z,3.67
2018-05-21T14:24:16.791Z,3.95
2018-05-21T14:26:44.362Z,3.65
2018-05-21T14:29:11.889Z,3.85
2018-05-21T14:31:39.438Z,3.50
2018-05-21T14:34:06.970Z,3.70
2018-05-21T14:36:34.519Z,3.65
2018-05-21T14:39:02.044Z,4.00
2018-05-21T14:41:29.596Z,3.72
2018-05-21T14:43:57.142Z,3.87
2018-05-21T14:46:24.701Z,3.62
2018-05-21T14:48:52.220Z,4.10
2018-05-21T14:51:19.696Z,4.00
2018-05-21T14:53:47.242Z,3.83
2018-05-21T14:56:14.823Z,3.60
2018-05-21T14:58:42.366Z,3.65
2018-05-21T15:01:09.887Z,3.90
2018-05-21T15:03:37.408Z,4.25
2018-05-21T15:06:04.961Z,3.87
2018-05-21T15:08:32.490Z,4.10
2018-05-21T15:11:00.010Z,3.70
2018-05-21T15:13:27.534Z,3.80
2018-05-21T15:15:55.159Z,4.28
2018-05-21T15:18:22.686Z,3.70
2018-05-21T15:20:50.180Z,3.70
2018-05-21T15:23:17.689Z,3.47
2018-05-21T15:25:45.189Z,3.97
2018-05-21T15:28:12.693Z,4.10
2018-05-21T15:30:40.150Z,3.50
2018-05-21T15:33:07.906Z,3.62
2018-05-21T15:35:35.381Z,3.80
2018-05-21T15:38:02.879Z,3.70
2018-05-21T15:40:30.388Z,3.72
2018-05-21T15:42:57.884Z,3.95
2018-05-21T15:45:25.377Z,3.95
2018-05-21T15:47:52.890Z,3.50
2018-05-21T15:50:20.375Z,4.28
2018-05-21T15:52:47.880Z,3.95
2018-05-21T15:55:15.347Z,3.65
2018-05-21T15:57:42.963Z,3.83
2018-05-21T16:00:10.450Z,3.80
2018-05-21T16:02:37.965Z,3.90
2018-05-21T16:05:05.465Z,3.80
2018-05-21T16:07:32.995Z,4.18
2018-05-21T16:10:00.470Z,3.62
2018-05-21T16:12:27.929Z,3.60
2018-05-21T16:14:55.426Z,4.07
2018-05-21T16:17:22.889Z,3.55
2018-05-21T16:19:50.374Z,3.45
2018-05-21T16:22:17.848Z,3.80
2018-05-21T16:24:45.331Z,4.10
2018-05-21T16:27:12.811Z,3.85
2018-05-21T16:29:40.574Z,3.83
2018-05-21T16:32:08.049Z,3.65
2018-05-21T16:34:35.557Z,3.83
2018-05-21T16:37:03.047Z,3.83
2018-05-21T16:39:30.542Z,3.33
2018-05-21T16:41:58.007Z,3.72
2018-05-21T16:44:25.489Z,3.60
2018-05-21T16:46:52.957Z,4.03
2018-05-21T16:49:20.685Z,3.62
2018-05-21T16:51:48.162Z,3.70
2018-05-21T16:54:15.652Z,3.78
2018-05-21T16:56:43.120Z,3.50
2018-05-21T16:59:10.645Z,4.22
2018-05-21T17:01:38.106Z,3.83
2018-05-21T17:04:05.583Z,4.00
2018-05-21T17:06:33.733Z,3.62
2018-05-21T17:09:01.898Z,3.72
2018-05-21T17:11:30.206Z,4.00
2018-05-21T17:13:57.710Z,3.67
2018-05-21T17:16:25.210Z,4.40
2018-05-21T17:18:52.702Z,3.90
2018-05-21T17:21:20.169Z,3.60
2018-05-21T17:23:47.660Z,4.10
2018-05-21T17:26:15.115Z,4.00
2018-05-21T17:28:42.614Z,3.93
2018-05-21T17:31:10.088Z,3.80
2018-05-21T17:33:37.581Z,4.00
2018-05-21T17:36:05.138Z,3.70
2018-05-21T17:38:32.657Z,3.80
2018-05-21T17:41:00.138Z,4.00
2018-05-21T17:43:27.602Z,4.47
2018-05-21T17:45:55.078Z,3.97
2018-05-21T17:48:22.549Z,3.90
2018-05-21T17:50:50.030Z,4.10
2018-05-21T17:53:17.497Z,3.97
2018-05-21T17:55:44.975Z,3.90
2018-05-21T17:58:12.438Z,4.30
2018-05-21T18:00:39.926Z,3.73
2018-05-21T18:03:07.418Z,3.67
2018-05-21T18:05:34.897Z,3.90
2018-05-21T18:08:02.362Z,3.80
2018-05-21T18:10:29.842Z,3.90
2018-05-21T18:12:57.357Z,4.33
2018-05-21T18:15:24.934Z,4.07
2018-05-21T18:17:52.438Z,4.10
2018-05-21T18:20:19.956Z,3.77
2018-05-21T18:22:48.341Z,4.70
2018-05-21T18:25:15.903Z,3.97
2018-05-21T18:27:43.397Z,4.20
2018-05-21T18:30:11.043Z,4.43
2018-05-21T18:32:38.512Z,4.10
2018-05-21T18:35:06.015Z,4.60
2018-05-21T18:37:33.482Z,4.53
2018-05-21T18:40:00.995Z,4.27
2018-05-21T18:42:28.555Z,4.30
2018-05-21T18:44:55.963Z,4.37
2018-05-21T18:47:23.434Z,4.60
2018-05-21T18:49:50.934Z,3.93
2018-05-21T18:52:18.401Z,4.10
2018-05-21T18:54:46.135Z,4.07
2018-05-21T18:57:13.643Z,4.30
2018-05-21T18:59:41.175Z,4.00
2018-05-21T19:02:08.658Z,4.50
2018-05-21T19:04:36.124Z,4.40
2018-05-21T19:07:03.610Z,4.20
2018-05-21T19:09:31.067Z,3.97
2018-05-21T19:11:58.558Z,4.30
2018-05-21T19:14:26.023Z,4.53
2018-05-21T19:16:53.513Z,4.07
2018-05-21T19:19:21.002Z,4.40
2018-05-21T19:21:48.493Z,4.20
2018-05-21T19:24:16.007Z,4.40
2018-05-21T19:26:43.506Z,4.13
2018-05-21T19:29:10.959Z,4.20
2018-05-21T19:31:38.433Z,4.20
2018-05-21T19:34:05.898Z,3.90
2018-05-21T19:36:33.383Z,4.33
2018-05-21T19:39:00.849Z,4.50
2018-05-21T19:41:28.344Z,4.40
2018-05-21T19:43:55.817Z,4.50
2018-05-21T19:46:23.308Z,4.80
2018-05-21T19:48:50.790Z,4.70
2018-05-21T19:51:18.283Z,4.80
2018-05-21T19:53:45.746Z,4.40
2018-05-21T19:56:13.237Z,4.73
2018-05-21T19:58:40.718Z,4.17
2018-05-21T20:01:08.197Z,4.67
2018-05-21T20:03:35.667Z,4.23
2018-05-21T20:06:03.150Z,4.77
2018-05-21T20:08:30.624Z,4.40
2018-05-21T20:10:58.107Z,4.30
2018-05-21T20:13:25.574Z,4.60
2018-05-21T20:15:53.091Z,4.27
2018-05-21T20:18:32.346Z,5.10
2018-05-21T20:20:59.841Z,4.60
2018-05-21T20:23:27.302Z,5.27
2018-05-21T20:25:55.011Z,4.77
2018-05-21T20:28:22.499Z,4.87
2018-05-21T20:30:49.975Z,4.80
2018-05-21T20:33:17.453Z,4.87
2018-05-21T20:35:44.922Z,4.80
2018-05-21T20:38:12.404Z,5.00
2018-05-21T20:40:39.881Z,5.00
2018-05-21T20:43:07.374Z,5.00
2018-05-21T20:45:34.834Z,5.57
2018-05-21T20:48:02.328Z,5.43
2018-05-21T20:50:29.790Z,6.13
2018-05-21T20:52:57.353Z,6.37
2018-05-21T20:55:26.359Z,5.80
2018-05-21T20:57:53.866Z,5.50
2018-05-21T21:00:21.321Z,5.43
2018-05-21T21:02:48.832Z,5.80
2018-05-21T21:05:16.289Z,6.10
2018-05-21T21:07:43.753Z,6.47
2018-05-21T21:10:11.250Z,5.90
2018-05-21T21:12:38.714Z,5.30
2018-05-21T21:15:06.210Z,6.03
2018-05-21T21:17:33.674Z,6.23
2018-05-21T21:20:01.175Z,6.30
2018-05-21T21:22:28.674Z,6.27
2018-05-21T21:24:56.156Z,7.00
2018-05-21T21:27:23.619Z,7.13
2018-05-21T21:29:51.101Z,7.30
2018-05-21T21:32:18.577Z,7.00
2018-05-21T21:34:46.095Z,6.23
2018-05-21T21:37:13.556Z,6.20
2018-05-21T21:39:41.050Z,6.17
2018-05-21T21:42:08.510Z,5.93
2018-05-21T21:44:36.041Z,6.10
2018-05-21T21:47:03.519Z,6.90
2018-05-21T21:49:31.008Z,7.00
2018-05-21T21:51:58.476Z,7.00
2018-05-21T21:54:25.969Z,6.77
2018-05-21T21:56:53.436Z,6.83
2018-05-21T21:59:20.923Z,7.33
2018-05-21T22:01:48.422Z,7.50
2018-05-21T22:04:15.874Z,7.03
2018-05-21T22:06:43.363Z,7.17
2018-05-21T22:09:10.839Z,7.50
2018-05-21T22:11:38.314Z,7.40
2018-05-21T22:14:05.779Z,8.60
2018-05-21T22:16:33.267Z,7.93
2018-05-21T22:19:00.759Z,8.60
2018-05-21T22:21:28.247Z,9.40
2018-05-21T22:23:55.717Z,10.53
2018-05-21T22:26:23.205Z,10.30
2018-05-21T22:28:50.677Z,11.33
2018-05-21T22:31:18.180Z,9.87
2018-05-21T22:33:45.649Z,10.37
2018-05-21T22:36:13.154Z,10.73
2018-05-21T22:38:40.637Z,10.70
2018-05-21T22:41:08.114Z,10.07
2018-05-21T22:43:35.602Z,10.27
2018-05-21T22:46:03.071Z,11.17
2018-05-21T22:48:30.558Z,9.97
2018-05-21T22:50:58.030Z,10.07
2018-05-21T22:53:25.530Z,10.77
2018-05-21T22:55:53.001Z,10.90
2018-05-21T22:58:20.504Z,10.47
2018-05-21T23:00:47.986Z,10.23
2018-05-21T23:03:15.474Z,10.27
2018-05-21T23:05:42.949Z,10.40
2018-05-21T23:08:10.452Z,10.30
2018-05-21T23:10:37.925Z,10.20
2018-05-21T23:13:05.416Z,9.97
2018-05-21T23:15:32.889Z,10.97
2018-05-21T23:18:07.814Z,11.40
2018-05-21T23:20:35.282Z,11.93
2018-05-21T23:23:02.761Z,10.40
2018-05-21T23:25:30.252Z,11.53
2018-05-21T23:27:57.722Z,10.83
2018-05-21T23:30:25.210Z,10.80
2018-05-21T23:32:52.730Z,10.23
2018-05-21T23:35:20.229Z,11.73
2018-05-21T23:37:47.702Z,12.00
2018-05-21T23:40:15.192Z,12.97
2018-05-21T23:42:42.663Z,11.90
2018-05-21T23:45:10.202Z,10.67
2018-05-21T23:47:37.683Z,11.70
2018-05-21T23:50:05.183Z,12.00
2018-05-21T23:52:32.645Z,11.87
2018-05-21T23:55:00.142Z,10.93
2018-05-21T23:57:27.619Z,11.07
2018-05-21T23:59:55.086Z,10.30
